sensor_id;sensor_type;location;lat;lon;timestamp;temperature;humidity
14471;DHT22;7321;50.802;4.336;2023-08-30T00:00:47;16.30;99.90
14471;DHT22;7321;50.802;4.336;2023-08-30T00:03:13;16.30;99.90
14471;DHT22;7321;50.802;4.336;2023-08-30T00:05:40;16.40;99.90
14471;DHT22;7321;50.802;4.336;2023-08-30T00:08:06;16.30;99.90
14471;DHT22;7321;50.802;4.336;2023-08-30T00:10:32;16.40;99.90
14471;DHT22;7321;50.802;4.336;2023-08-30T00:12:58;16.30;99.90
14471;DHT22;7321;50.802;4.336;2023-08-30T00:15:24;16.40;99.90
14471;DHT22;7321;50.802;4.336;2023-08-30T00:17:50;16.40;99.90
14471;DHT22;7321;50.802;4.336;2023-08-30T00:20:20;16.40;99.90
14471;DHT22;7321;50.802;4.336;2023-08-30T00:22:48;16.50;99.90
14471;DHT22;7321;50.802;4.336;2023-08-30T00:25:16;16.40;99.90
14471;DHT22;7321;50.802;4.336;2023-08-30T00:27:42;16.40;99.90
14471;DHT22;7321;50.802;4.336;2023-08-30T00:30:09;16.40;99.90
14471;DHT22;7321;50.802;4.336;2023-08-30T00:32:35;16.30;99.90
14471;DHT22;7321;50.802;4.336;2023-08-30T00:35:02;16.30;99.90
14471;DHT22;7321;50.802;4.336;2023-08-30T00:37:28;16.40;99.90
14471;DHT22;7321;50.802;4.336;2023-08-30T00:39:53;16.30;99.90
14471;DHT22;7321;50.802;4.336;2023-08-30T00:42:19;16.30;99.90
14471;DHT22;7321;50.802;4.336;2023-08-30T00:44:45;16.30;99.90
14471;DHT22;7321;50.802;4.336;2023-08-30T00:47:11;16.20;99.90
14471;DHT22;7321;50.802;4.336;2023-08-30T00:49:37;16.10;99.90
14471;DHT22;7321;50.802;4.336;2023-08-30T00:52:06;16.10;99.90
14471;DHT22;7321;50.802;4.336;2023-08-30T00:54:33;16.00;99.90
14471;DHT22;7321;50.802;4.336;2023-08-30T00:57:00;16.00;99.90
14471;DHT22;7321;50.802;4.336;2023-08-30T00:59:27;16.00;99.90
14471;DHT22;7321;50.802;4.336;2023-08-30T01:01:55;15.80;99.90
14471;DHT22;7321;50.802;4.336;2023-08-30T01:04:20;15.90;99.90
14471;DHT22;7321;50.802;4.336;2023-08-30T01:06:47;15.90;99.90
14471;DHT22;7321;50.802;4.336;2023-08-30T01:09:15;15.90;99.90
14471;DHT22;7321;50.802;4.336;2023-08-30T01:12:04;15.80;99.90
14471;DHT22;7321;50.802;4.336;2023-08-30T01:14:59;15.80;99.90
14471;DHT22;7321;50.802;4.336;2023-08-30T01:17:27;15.70;99.90
14471;DHT22;7321;50.802;4.336;2023-08-30T01:20:01;15.70;99.90
14471;DHT22;7321;50.802;4.336;2023-08-30T01:27:31;15.60;99.90
14471;DHT22;7321;50.802;4.336;2023-08-30T01:30:02;15.50;99.90
14471;DHT22;7321;50.802;4.336;2023-08-30T01:32:29;15.50;99.90
14471;DHT22;7321;50.802;4.336;2023-08-30T01:34:56;15.60;99.90
14471;DHT22;7321;50.802;4.336;2023-08-30T01:37:24;15.50;99.90
14471;DHT22;7321;50.802;4.336;2023-08-30T01:39:52;15.60;99.90
14471;DHT22;7321;50.802;4.336;2023-08-30T01:42:19;15.60;99.90
14471;DHT22;7321;50.802;4.336;2023-08-30T01:44:49;15.60;99.90
14471;DHT22;7321;50.802;4.336;2023-08-30T01:47:15;15.70;99.90
14471;DHT22;7321;50.802;4.336;2023-08-30T01:49:43;15.80;99.90
14471;DHT22;7321;50.802;4.336;2023-08-30T01:52:10;15.70;99.90
14471;DHT22;7321;50.802;4.336;2023-08-30T01:54:37;15.70;99.90
14471;DHT22;7321;50.802;4.336;2023-08-30T01:57:05;15.60;99.90
14471;DHT22;7321;50.802;4.336;2023-08-30T01:59:31;15.70;99.90
14471;DHT22;7321;50.802;4.336;2023-08-30T02:01:57;15.60;99.90
14471;DHT22;7321;50.802;4.336;2023-08-30T02:04:22;15.60;99.90
14471;DHT22;7321;50.802;4.336;2023-08-30T02:06:57;15.60;99.90
14471;DHT22;7321;50.802;4.336;2023-08-30T02:12:14;15.70;99.90
14471;DHT22;7321;50.802;4.336;2023-08-30T02:14:44;15.60;99.90
14471;DHT22;7321;50.802;4.336;2023-08-30T02:17:14;15.70;99.90
14471;DHT22;7321;50.802;4.336;2023-08-30T02:19:44;15.60;99.90
14471;DHT22;7321;50.802;4.336;2023-08-30T02:22:11;15.70;99.90
14471;DHT22;7321;50.802;4.336;2023-08-30T02:24:36;15.70;99.90
14471;DHT22;7321;50.802;4.336;2023-08-30T02:27:03;15.80;99.90
14471;DHT22;7321;50.802;4.336;2023-08-30T02:29:29;15.80;99.90
14471;DHT22;7321;50.802;4.336;2023-08-30T02:31:55;15.90;99.90
14471;DHT22;7321;50.802;4.336;2023-08-30T02:34:21;15.90;99.90
14471;DHT22;7321;50.802;4.336;2023-08-30T02:36:47;16.00;99.90
14471;DHT22;7321;50.802;4.336;2023-08-30T02:39:14;16.10;99.90
14471;DHT22;7321;50.802;4.336;2023-08-30T02:41:40;16.10;99.90
14471;DHT22;7321;50.802;4.336;2023-08-30T02:44:08;16.20;99.90
14471;DHT22;7321;50.802;4.336;2023-08-30T02:46:34;16.10;99.90
14471;DHT22;7321;50.802;4.336;2023-08-30T02:49:00;16.10;99.90
14471;DHT22;7321;50.802;4.336;2023-08-30T02:51:25;15.90;99.90
14471;DHT22;7321;50.802;4.336;2023-08-30T02:53:51;15.90;99.90
14471;DHT22;7321;50.802;4.336;2023-08-30T02:56:17;15.90;99.90
14471;DHT22;7321;50.802;4.336;2023-08-30T02:58:43;15.90;99.90
14471;DHT22;7321;50.802;4.336;2023-08-30T03:01:09;15.80;99.90
14471;DHT22;7321;50.802;4.336;2023-08-30T03:03:34;15.90;99.90
14471;DHT22;7321;50.802;4.336;2023-08-30T03:06:02;16.00;99.90
14471;DHT22;7321;50.802;4.336;2023-08-30T03:08:28;16.00;99.90
14471;DHT22;7321;50.802;4.336;2023-08-30T03:10:54;16.00;99.90
14471;DHT22;7321;50.802;4.336;2023-08-30T03:13:20;16.00;99.90
14471;DHT22;7321;50.802;4.336;2023-08-30T03:15:46;16.10;99.90
14471;DHT22;7321;50.802;4.336;2023-08-30T03:18:11;16.10;99.90
14471;DHT22;7321;50.802;4.336;2023-08-30T03:20:37;16.10;99.90
14471;DHT22;7321;50.802;4.336;2023-08-30T03:23:03;16.10;99.90
14471;DHT22;7321;50.802;4.336;2023-08-30T03:25:29;16.10;99.90
14471;DHT22;7321;50.802;4.336;2023-08-30T03:27:56;16.20;99.90
14471;DHT22;7321;50.802;4.336;2023-08-30T03:30:21;16.10;99.90
14471;DHT22;7321;50.802;4.336;2023-08-30T03:32:47;16.00;99.90
14471;DHT22;7321;50.802;4.336;2023-08-30T03:35:13;16.00;99.90
14471;DHT22;7321;50.802;4.336;2023-08-30T03:37:41;16.00;99.90
14471;DHT22;7321;50.802;4.336;2023-08-30T03:40:07;15.90;99.90
14471;DHT22;7321;50.802;4.336;2023-08-30T03:42:35;15.90;99.90
14471;DHT22;7321;50.802;4.336;2023-08-30T03:45:01;15.90;99.90
14471;DHT22;7321;50.802;4.336;2023-08-30T03:47:26;15.90;99.90
14471;DHT22;7321;50.802;4.336;2023-08-30T03:49:52;16.00;99.90
14471;DHT22;7321;50.802;4.336;2023-08-30T03:52:18;15.90;99.90
14471;DHT22;7321;50.802;4.336;2023-08-30T03:54:44;16.00;99.90
14471;DHT22;7321;50.802;4.336;2023-08-30T03:57:09;15.90;99.90
14471;DHT22;7321;50.802;4.336;2023-08-30T03:59:35;16.00;99.90
14471;DHT22;7321;50.802;4.336;2023-08-30T04:02:01;16.00;99.90
14471;DHT22;7321;50.802;4.336;2023-08-30T04:04:27;15.90;99.90
14471;DHT22;7321;50.802;4.336;2023-08-30T04:06:52;15.90;99.90
14471;DHT22;7321;50.802;4.336;2023-08-30T04:09:18;15.90;99.90
14471;DHT22;7321;50.802;4.336;2023-08-30T04:11:44;15.90;99.90
14471;DHT22;7321;50.802;4.336;2023-08-30T04:14:10;15.90;99.90
14471;DHT22;7321;50.802;4.336;2023-08-30T04:16:36;16.00;99.90
14471;DHT22;7321;50.802;4.336;2023-08-30T04:19:02;16.10;99.90
14471;DHT22;7321;50.802;4.336;2023-08-30T04:21:27;16.00;99.90
14471;DHT22;7321;50.802;4.336;2023-08-30T04:23:53;16.10;99.90
14471;DHT22;7321;50.802;4.336;2023-08-30T04:26:19;16.00;99.90
14471;DHT22;7321;50.802;4.336;2023-08-30T04:28:47;16.00;99.90
14471;DHT22;7321;50.802;4.336;2023-08-30T04:31:13;16.00;99.90
14471;DHT22;7321;50.802;4.336;2023-08-30T04:33:39;16.00;99.90
14471;DHT22;7321;50.802;4.336;2023-08-30T04:36:05;15.90;99.90
14471;DHT22;7321;50.802;4.336;2023-08-30T04:38:31;16.00;99.90
14471;DHT22;7321;50.802;4.336;2023-08-30T04:41:00;16.10;99.90
14471;DHT22;7321;50.802;4.336;2023-08-30T04:43:26;16.00;99.90
14471;DHT22;7321;50.802;4.336;2023-08-30T04:45:51;15.90;99.90
14471;DHT22;7321;50.802;4.336;2023-08-30T04:48:17;15.80;99.90
14471;DHT22;7321;50.802;4.336;2023-08-30T04:50:43;15.90;99.90
14471;DHT22;7321;50.802;4.336;2023-08-30T04:53:09;15.70;99.90
14471;DHT22;7321;50.802;4.336;2023-08-30T04:55:35;15.80;99.90
14471;DHT22;7321;50.802;4.336;2023-08-30T04:58:00;15.80;99.90
14471;DHT22;7321;50.802;4.336;2023-08-30T05:00:26;15.80;99.90
14471;DHT22;7321;50.802;4.336;2023-08-30T05:02:52;15.70;99.90
14471;DHT22;7321;50.802;4.336;2023-08-30T05:05:18;15.80;99.90
14471;DHT22;7321;50.802;4.336;2023-08-30T05:07:44;15.70;99.90
14471;DHT22;7321;50.802;4.336;2023-08-30T05:10:10;15.60;99.90
14471;DHT22;7321;50.802;4.336;2023-08-30T05:12:36;15.70;99.90
14471;DHT22;7321;50.802;4.336;2023-08-30T05:15:02;15.60;99.90
14471;DHT22;7321;50.802;4.336;2023-08-30T05:17:29;15.50;99.90
14471;DHT22;7321;50.802;4.336;2023-08-30T05:19:55;15.40;99.90
14471;DHT22;7321;50.802;4.336;2023-08-30T05:22:21;15.50;99.90
14471;DHT22;7321;50.802;4.336;2023-08-30T05:24:47;15.50;99.90
14471;DHT22;7321;50.802;4.336;2023-08-30T05:27:13;15.50;99.90
14471;DHT22;7321;50.802;4.336;2023-08-30T05:29:40;15.40;99.90
14471;DHT22;7321;50.802;4.336;2023-08-30T05:32:06;15.40;99.90
14471;DHT22;7321;50.802;4.336;2023-08-30T05:34:32;15.30;99.90
14471;DHT22;7321;50.802;4.336;2023-08-30T05:36:58;15.30;99.90
14471;DHT22;7321;50.802;4.336;2023-08-30T05:39:24;15.20;99.90
14471;DHT22;7321;50.802;4.336;2023-08-30T05:41:49;15.20;99.90
14471;DHT22;7321;50.802;4.336;2023-08-30T05:44:15;15.30;99.90
14471;DHT22;7321;50.802;4.336;2023-08-30T05:46:41;15.30;99.90
14471;DHT22;7321;50.802;4.336;2023-08-30T05:49:07;15.40;99.90
14471;DHT22;7321;50.802;4.336;2023-08-30T05:51:33;15.50;99.90
14471;DHT22;7321;50.802;4.336;2023-08-30T05:53:59;15.60;99.90
14471;DHT22;7321;50.802;4.336;2023-08-30T05:56:25;15.70;99.90
14471;DHT22;7321;50.802;4.336;2023-08-30T05:58:51;15.80;99.90
14471;DHT22;7321;50.802;4.336;2023-08-30T06:01:18;15.90;99.90
14471;DHT22;7321;50.802;4.336;2023-08-30T06:03:45;16.00;99.90
14471;DHT22;7321;50.802;4.336;2023-08-30T06:06:12;16.10;99.90
14471;DHT22;7321;50.802;4.336;2023-08-30T06:08:38;16.20;99.90
14471;DHT22;7321;50.802;4.336;2023-08-30T06:11:04;16.20;99.90
14471;DHT22;7321;50.802;4.336;2023-08-30T06:13:30;16.20;99.90
14471;DHT22;7321;50.802;4.336;2023-08-30T06:15:56;16.30;99.90
14471;DHT22;7321;50.802;4.336;2023-08-30T06:18:22;16.30;99.90
14471;DHT22;7321;50.802;4.336;2023-08-30T06:20:51;16.20;99.90
14471;DHT22;7321;50.802;4.336;2023-08-30T06:23:18;16.10;99.90
14471;DHT22;7321;50.802;4.336;2023-08-30T06:25:53;16.10;99.90
14471;DHT22;7321;50.802;4.336;2023-08-30T06:28:25;16.20;99.90
14471;DHT22;7321;50.802;4.336;2023-08-30T06:30:54;16.20;99.90
14471;DHT22;7321;50.802;4.336;2023-08-30T06:33:23;16.20;99.90
14471;DHT22;7321;50.802;4.336;2023-08-30T06:35:49;16.20;99.90
14471;DHT22;7321;50.802;4.336;2023-08-30T06:38:16;16.30;99.90
14471;DHT22;7321;50.802;4.336;2023-08-30T06:40:46;16.30;99.90
14471;DHT22;7321;50.802;4.336;2023-08-30T06:43:12;16.30;99.90
14471;DHT22;7321;50.802;4.336;2023-08-30T06:45:39;16.30;99.90
14471;DHT22;7321;50.802;4.336;2023-08-30T06:48:06;16.50;99.90
14471;DHT22;7321;50.802;4.336;2023-08-30T06:50:33;16.50;99.90
14471;DHT22;7321;50.802;4.336;2023-08-30T06:53:00;16.30;99.90
14471;DHT22;7321;50.802;4.336;2023-08-30T06:55:26;16.40;99.90
14471;DHT22;7321;50.802;4.336;2023-08-30T06:57:51;16.30;99.90
14471;DHT22;7321;50.802;4.336;2023-08-30T07:00:18;16.20;99.90
14471;DHT22;7321;50.802;4.336;2023-08-30T07:02:44;16.30;99.90
14471;DHT22;7321;50.802;4.336;2023-08-30T07:05:14;16.20;99.90
14471;DHT22;7321;50.802;4.336;2023-08-30T07:07:40;16.20;99.90
14471;DHT22;7321;50.802;4.336;2023-08-30T07:10:06;16.10;99.90
14471;DHT22;7321;50.802;4.336;2023-08-30T07:12:32;16.10;99.90
14471;DHT22;7321;50.802;4.336;2023-08-30T07:14:58;16.30;99.90
14471;DHT22;7321;50.802;4.336;2023-08-30T07:17:24;16.40;99.90
14471;DHT22;7321;50.802;4.336;2023-08-30T07:19:50;16.50;99.90
14471;DHT22;7321;50.802;4.336;2023-08-30T07:22:16;16.50;99.90
14471;DHT22;7321;50.802;4.336;2023-08-30T07:24:43;16.60;99.90
14471;DHT22;7321;50.802;4.336;2023-08-30T07:27:09;16.60;99.90
14471;DHT22;7321;50.802;4.336;2023-08-30T07:29:35;16.60;99.90
14471;DHT22;7321;50.802;4.336;2023-08-30T07:32:01;16.40;99.90
14471;DHT22;7321;50.802;4.336;2023-08-30T07:34:28;16.40;99.90
14471;DHT22;7321;50.802;4.336;2023-08-30T07:36:57;16.40;99.90
14471;DHT22;7321;50.802;4.336;2023-08-30T07:39:25;16.40;99.90
14471;DHT22;7321;50.802;4.336;2023-08-30T07:41:52;16.40;99.90
14471;DHT22;7321;50.802;4.336;2023-08-30T07:44:21;16.40;99.90
14471;DHT22;7321;50.802;4.336;2023-08-30T07:46:53;16.40;99.90
14471;DHT22;7321;50.802;4.336;2023-08-30T07:49:21;16.40;99.90
14471;DHT22;7321;50.802;4.336;2023-08-30T07:54:42;16.40;99.90
14471;DHT22;7321;50.802;4.336;2023-08-30T07:57:13;16.40;99.90
14471;DHT22;7321;50.802;4.336;2023-08-30T07:59:42;16.50;99.90
14471;DHT22;7321;50.802;4.336;2023-08-30T08:02:13;16.40;99.90
14471;DHT22;7321;50.802;4.336;2023-08-30T08:04:42;16.50;99.90
14471;DHT22;7321;50.802;4.336;2023-08-30T08:07:08;16.40;99.90
14471;DHT22;7321;50.802;4.336;2023-08-30T08:09:42;16.30;99.90
14471;DHT22;7321;50.802;4.336;2023-08-30T08:12:17;16.40;99.90
14471;DHT22;7321;50.802;4.336;2023-08-30T08:14:57;16.30;99.90
14471;DHT22;7321;50.802;4.336;2023-08-30T08:17:23;16.50;99.90
14471;DHT22;7321;50.802;4.336;2023-08-30T08:19:55;16.50;99.90
14471;DHT22;7321;50.802;4.336;2023-08-30T08:22:32;16.50;99.90
14471;DHT22;7321;50.802;4.336;2023-08-30T08:25:08;16.60;99.90
14471;DHT22;7321;50.802;4.336;2023-08-30T08:27:56;16.70;99.90
14471;DHT22;7321;50.802;4.336;2023-08-30T08:30:35;16.70;99.90
14471;DHT22;7321;50.802;4.336;2023-08-30T08:33:30;16.70;99.90
14471;DHT22;7321;50.802;4.336;2023-08-30T08:35:59;16.80;99.90
14471;DHT22;7321;50.802;4.336;2023-08-30T08:38:30;16.80;99.90
14471;DHT22;7321;50.802;4.336;2023-08-30T08:41:06;16.90;99.90
14471;DHT22;7321;50.802;4.336;2023-08-30T08:43:40;17.00;99.90
14471;DHT22;7321;50.802;4.336;2023-08-30T08:46:56;17.10;99.90
14471;DHT22;7321;50.802;4.336;2023-08-30T08:49:45;17.30;99.90
14471;DHT22;7321;50.802;4.336;2023-08-30T08:52:14;17.40;99.90
14471;DHT22;7321;50.802;4.336;2023-08-30T08:54:44;17.40;99.90
14471;DHT22;7321;50.802;4.336;2023-08-30T08:57:13;17.60;99.90
14471;DHT22;7321;50.802;4.336;2023-08-30T08:59:39;17.70;99.90
14471;DHT22;7321;50.802;4.336;2023-08-30T09:02:08;17.80;99.90
14471;DHT22;7321;50.802;4.336;2023-08-30T09:04:36;17.90;99.90
14471;DHT22;7321;50.802;4.336;2023-08-30T09:07:01;18.20;99.90
14471;DHT22;7321;50.802;4.336;2023-08-30T09:09:28;18.40;99.90
14471;DHT22;7321;50.802;4.336;2023-08-30T09:11:54;18.30;99.90
14471;DHT22;7321;50.802;4.336;2023-08-30T09:14:20;18.30;99.90
14471;DHT22;7321;50.802;4.336;2023-08-30T09:16:56;18.10;99.90
14471;DHT22;7321;50.802;4.336;2023-08-30T09:19:22;18.00;99.90
14471;DHT22;7321;50.802;4.336;2023-08-30T09:21:55;18.20;99.90
14471;DHT22;7321;50.802;4.336;2023-08-30T09:24:24;18.10;99.90
14471;DHT22;7321;50.802;4.336;2023-08-30T09:26:52;18.10;99.90
14471;DHT22;7321;50.802;4.336;2023-08-30T09:29:19;18.20;99.90
14471;DHT22;7321;50.802;4.336;2023-08-30T09:31:46;18.30;99.90
14471;DHT22;7321;50.802;4.336;2023-08-30T09:34:12;18.40;99.90
14471;DHT22;7321;50.802;4.336;2023-08-30T09:36:41;18.20;99.90
14471;DHT22;7321;50.802;4.336;2023-08-30T09:39:09;18.10;99.90
14471;DHT22;7321;50.802;4.336;2023-08-30T09:41:41;18.10;99.90
14471;DHT22;7321;50.802;4.336;2023-08-30T09:44:17;18.20;99.90
14471;DHT22;7321;50.802;4.336;2023-08-30T09:49:11;18.50;99.90
14471;DHT22;7321;50.802;4.336;2023-08-30T09:51:39;18.70;99.90
14471;DHT22;7321;50.802;4.336;2023-08-30T09:54:19;18.70;99.90
14471;DHT22;7321;50.802;4.336;2023-08-30T09:56:46;18.70;99.90
14471;DHT22;7321;50.802;4.336;2023-08-30T09:59:13;18.70;99.90
14471;DHT22;7321;50.802;4.336;2023-08-30T10:01:43;18.50;99.90
14471;DHT22;7321;50.802;4.336;2023-08-30T10:04:10;18.40;99.90
14471;DHT22;7321;50.802;4.336;2023-08-30T10:06:39;18.20;99.90
14471;DHT22;7321;50.802;4.336;2023-08-30T10:09:07;18.20;99.90
14471;DHT22;7321;50.802;4.336;2023-08-30T10:11:35;18.10;99.90
14471;DHT22;7321;50.802;4.336;2023-08-30T10:14:05;18.10;99.90
14471;DHT22;7321;50.802;4.336;2023-08-30T10:16:43;18.10;99.90
14471;DHT22;7321;50.802;4.336;2023-08-30T10:19:15;18.10;99.90
14471;DHT22;7321;50.802;4.336;2023-08-30T10:21:43;18.20;99.90
14471;DHT22;7321;50.802;4.336;2023-08-30T10:24:12;18.20;99.90
14471;DHT22;7321;50.802;4.336;2023-08-30T10:26:42;18.40;99.90
14471;DHT22;7321;50.802;4.336;2023-08-30T10:29:10;18.50;99.90
14471;DHT22;7321;50.802;4.336;2023-08-30T10:31:38;18.60;99.90
14471;DHT22;7321;50.802;4.336;2023-08-30T10:34:14;18.80;99.90
14471;DHT22;7321;50.802;4.336;2023-08-30T10:36:42;19.10;99.90
14471;DHT22;7321;50.802;4.336;2023-08-30T10:39:12;19.30;99.90
14471;DHT22;7321;50.802;4.336;2023-08-30T10:41:54;19.40;99.90
14471;DHT22;7321;50.802;4.336;2023-08-30T10:44:22;19.30;99.90
14471;DHT22;7321;50.802;4.336;2023-08-30T10:46:52;19.30;99.90
14471;DHT22;7321;50.802;4.336;2023-08-30T10:49:18;19.30;99.90
14471;DHT22;7321;50.802;4.336;2023-08-30T10:51:45;19.50;99.90
14471;DHT22;7321;50.802;4.336;2023-08-30T10:54:16;19.70;99.90
14471;DHT22;7321;50.802;4.336;2023-08-30T10:56:55;19.70;99.90
14471;DHT22;7321;50.802;4.336;2023-08-30T10:59:23;19.80;99.90
14471;DHT22;7321;50.802;4.336;2023-08-30T11:01:50;19.50;99.90
14471;DHT22;7321;50.802;4.336;2023-08-30T11:04:19;19.50;99.90
14471;DHT22;7321;50.802;4.336;2023-08-30T11:06:47;19.40;99.90
14471;DHT22;7321;50.802;4.336;2023-08-30T11:09:21;19.20;99.90
14471;DHT22;7321;50.802;4.336;2023-08-30T11:11:48;19.40;99.90
14471;DHT22;7321;50.802;4.336;2023-08-30T11:14:15;19.70;99.90
14471;DHT22;7321;50.802;4.336;2023-08-30T11:16:41;19.90;99.90
14471;DHT22;7321;50.802;4.336;2023-08-30T11:19:09;20.10;99.90
14471;DHT22;7321;50.802;4.336;2023-08-30T11:21:43;20.10;99.90
14471;DHT22;7321;50.802;4.336;2023-08-30T11:24:09;20.30;99.90
14471;DHT22;7321;50.802;4.336;2023-08-30T11:26:36;20.50;99.90
14471;DHT22;7321;50.802;4.336;2023-08-30T11:29:09;20.70;99.90
14471;DHT22;7321;50.802;4.336;2023-08-30T11:31:35;20.80;99.90
14471;DHT22;7321;50.802;4.336;2023-08-30T11:34:02;20.90;99.90
14471;DHT22;7321;50.802;4.336;2023-08-30T11:36:29;21.30;99.90
14471;DHT22;7321;50.802;4.336;2023-08-30T11:38:56;21.20;99.90
14471;DHT22;7321;50.802;4.336;2023-08-30T11:41:23;21.00;99.90
14471;DHT22;7321;50.802;4.336;2023-08-30T11:43:53;20.70;99.90
14471;DHT22;7321;50.802;4.336;2023-08-30T11:46:20;20.60;99.90
14471;DHT22;7321;50.802;4.336;2023-08-30T11:48:47;20.50;99.90
14471;DHT22;7321;50.802;4.336;2023-08-30T11:51:14;20.90;99.90
14471;DHT22;7321;50.802;4.336;2023-08-30T11:53:40;20.60;99.90
14471;DHT22;7321;50.802;4.336;2023-08-30T11:56:07;20.20;99.90
14471;DHT22;7321;50.802;4.336;2023-08-30T11:58:34;20.50;99.90
14471;DHT22;7321;50.802;4.336;2023-08-30T12:01:01;20.60;99.90
14471;DHT22;7321;50.802;4.336;2023-08-30T12:03:28;20.40;99.90
14471;DHT22;7321;50.802;4.336;2023-08-30T12:05:57;20.50;99.90
14471;DHT22;7321;50.802;4.336;2023-08-30T12:08:28;20.60;99.90
14471;DHT22;7321;50.802;4.336;2023-08-30T12:10:55;20.40;99.90
14471;DHT22;7321;50.802;4.336;2023-08-30T12:15:47;20.40;99.90
14471;DHT22;7321;50.802;4.336;2023-08-30T12:18:13;20.40;99.90
14471;DHT22;7321;50.802;4.336;2023-08-30T12:20:38;20.00;99.90
14471;DHT22;7321;50.802;4.336;2023-08-30T12:23:05;20.40;99.90
14471;DHT22;7321;50.802;4.336;2023-08-30T12:25:30;19.80;99.90
14471;DHT22;7321;50.802;4.336;2023-08-30T12:27:58;19.50;99.90
14471;DHT22;7321;50.802;4.336;2023-08-30T12:30:23;19.60;99.90
14471;DHT22;7321;50.802;4.336;2023-08-30T12:32:50;19.80;99.90
14471;DHT22;7321;50.802;4.336;2023-08-30T12:35:16;19.80;99.90
14471;DHT22;7321;50.802;4.336;2023-08-30T12:37:42;19.70;99.90
14471;DHT22;7321;50.802;4.336;2023-08-30T12:40:08;19.80;99.90
14471;DHT22;7321;50.802;4.336;2023-08-30T12:42:35;20.10;99.90
14471;DHT22;7321;50.802;4.336;2023-08-30T12:45:01;20.20;99.90
14471;DHT22;7321;50.802;4.336;2023-08-30T12:47:26;20.00;99.90
14471;DHT22;7321;50.802;4.336;2023-08-30T12:49:52;20.20;99.90
14471;DHT22;7321;50.802;4.336;2023-08-30T12:52:18;20.20;99.90
14471;DHT22;7321;50.802;4.336;2023-08-30T12:54:44;20.40;99.90
14471;DHT22;7321;50.802;4.336;2023-08-30T12:57:10;20.30;99.90
14471;DHT22;7321;50.802;4.336;2023-08-30T12:59:36;20.40;99.90
14471;DHT22;7321;50.802;4.336;2023-08-30T13:02:02;20.40;99.90
14471;DHT22;7321;50.802;4.336;2023-08-30T13:04:28;20.50;99.90
14471;DHT22;7321;50.802;4.336;2023-08-30T13:06:54;20.40;99.90
14471;DHT22;7321;50.802;4.336;2023-08-30T13:09:20;20.10;99.90
14471;DHT22;7321;50.802;4.336;2023-08-30T13:11:46;20.20;99.90
14471;DHT22;7321;50.802;4.336;2023-08-30T13:14:12;20.40;99.90
14471;DHT22;7321;50.802;4.336;2023-08-30T13:16:38;20.50;99.90
14471;DHT22;7321;50.802;4.336;2023-08-30T13:19:03;20.40;99.90
14471;DHT22;7321;50.802;4.336;2023-08-30T13:21:29;20.60;99.90
14471;DHT22;7321;50.802;4.336;2023-08-30T13:23:58;20.60;99.90
14471;DHT22;7321;50.802;4.336;2023-08-30T13:26:24;20.20;99.90
14471;DHT22;7321;50.802;4.336;2023-08-30T13:28:50;20.20;99.90
14471;DHT22;7321;50.802;4.336;2023-08-30T13:31:15;20.10;99.90
14471;DHT22;7321;50.802;4.336;2023-08-30T13:33:41;19.80;99.90
14471;DHT22;7321;50.802;4.336;2023-08-30T13:36:08;19.50;99.90
14471;DHT22;7321;50.802;4.336;2023-08-30T13:38:33;19.70;99.90
14471;DHT22;7321;50.802;4.336;2023-08-30T13:41:03;19.90;99.90
14471;DHT22;7321;50.802;4.336;2023-08-30T13:43:30;20.20;99.90
14471;DHT22;7321;50.802;4.336;2023-08-30T13:46:00;20.20;99.90
14471;DHT22;7321;50.802;4.336;2023-08-30T13:48:26;20.30;99.90
14471;DHT22;7321;50.802;4.336;2023-08-30T13:50:52;20.30;99.90
14471;DHT22;7321;50.802;4.336;2023-08-30T13:53:18;20.10;99.90
14471;DHT22;7321;50.802;4.336;2023-08-30T13:55:47;20.20;99.90
14471;DHT22;7321;50.802;4.336;2023-08-30T13:58:14;20.30;99.90
14471;DHT22;7321;50.802;4.336;2023-08-30T14:00:40;20.30;99.90
14471;DHT22;7321;50.802;4.336;2023-08-30T14:03:06;20.40;99.90
14471;DHT22;7321;50.802;4.336;2023-08-30T14:05:33;20.40;99.90
14471;DHT22;7321;50.802;4.336;2023-08-30T14:07:59;20.60;99.90
14471;DHT22;7321;50.802;4.336;2023-08-30T14:10:25;20.40;99.90
14471;DHT22;7321;50.802;4.336;2023-08-30T14:12:51;20.10;99.90
14471;DHT22;7321;50.802;4.336;2023-08-30T14:15:17;20.20;99.90
14471;DHT22;7321;50.802;4.336;2023-08-30T14:17:43;20.40;99.90
14471;DHT22;7321;50.802;4.336;2023-08-30T14:20:09;20.00;99.90
14471;DHT22;7321;50.802;4.336;2023-08-30T14:22:35;19.80;99.90
14471;DHT22;7321;50.802;4.336;2023-08-30T14:25:02;19.70;99.90
14471;DHT22;7321;50.802;4.336;2023-08-30T14:27:28;20.00;99.90
14471;DHT22;7321;50.802;4.336;2023-08-30T14:29:54;19.80;99.90
14471;DHT22;7321;50.802;4.336;2023-08-30T14:32:20;19.80;99.90
14471;DHT22;7321;50.802;4.336;2023-08-30T14:34:45;20.00;99.90
14471;DHT22;7321;50.802;4.336;2023-08-30T14:37:12;19.90;99.90
14471;DHT22;7321;50.802;4.336;2023-08-30T14:39:37;20.20;99.90
14471;DHT22;7321;50.802;4.336;2023-08-30T14:42:03;20.20;99.90
14471;DHT22;7321;50.802;4.336;2023-08-30T14:44:29;20.10;99.90
14471;DHT22;7321;50.802;4.336;2023-08-30T14:46:55;20.10;99.90
14471;DHT22;7321;50.802;4.336;2023-08-30T14:49:21;20.00;99.90
14471;DHT22;7321;50.802;4.336;2023-08-30T14:51:47;20.20;99.90
14471;DHT22;7321;50.802;4.336;2023-08-30T14:54:12;20.20;99.90
14471;DHT22;7321;50.802;4.336;2023-08-30T14:56:38;20.20;99.90
14471;DHT22;7321;50.802;4.336;2023-08-30T14:59:04;20.10;99.90
14471;DHT22;7321;50.802;4.336;2023-08-30T15:01:30;19.60;99.90
14471;DHT22;7321;50.802;4.336;2023-08-30T15:03:56;19.40;99.90
14471;DHT22;7321;50.802;4.336;2023-08-30T15:06:22;19.20;99.90
14471;DHT22;7321;50.802;4.336;2023-08-30T15:08:48;19.30;99.90
14471;DHT22;7321;50.802;4.336;2023-08-30T15:11:14;19.30;99.90
14471;DHT22;7321;50.802;4.336;2023-08-30T15:13:40;19.40;99.90
14471;DHT22;7321;50.802;4.336;2023-08-30T15:16:06;19.60;99.90
14471;DHT22;7321;50.802;4.336;2023-08-30T15:18:44;19.90;99.90
14471;DHT22;7321;50.802;4.336;2023-08-30T15:21:15;19.90;99.90
14471;DHT22;7321;50.802;4.336;2023-08-30T15:23:41;19.90;99.90
14471;DHT22;7321;50.802;4.336;2023-08-30T15:26:07;19.80;99.90
14471;DHT22;7321;50.802;4.336;2023-08-30T15:28:37;19.70;99.90
14471;DHT22;7321;50.802;4.336;2023-08-30T15:31:03;19.60;99.90
14471;DHT22;7321;50.802;4.336;2023-08-30T15:33:29;19.50;99.90
14471;DHT22;7321;50.802;4.336;2023-08-30T15:36:00;19.70;99.90
14471;DHT22;7321;50.802;4.336;2023-08-30T15:38:29;20.10;99.90
14471;DHT22;7321;50.802;4.336;2023-08-30T15:40:56;20.50;99.90
14471;DHT22;7321;50.802;4.336;2023-08-30T15:43:22;20.60;99.90
14471;DHT22;7321;50.802;4.336;2023-08-30T15:45:49;20.20;99.90
14471;DHT22;7321;50.802;4.336;2023-08-30T15:48:18;20.30;99.90
14471;DHT22;7321;50.802;4.336;2023-08-30T15:50:46;20.40;99.90
14471;DHT22;7321;50.802;4.336;2023-08-30T15:53:15;20.60;99.90
14471;DHT22;7321;50.802;4.336;2023-08-30T15:55:44;20.40;99.90
14471;DHT22;7321;50.802;4.336;2023-08-30T15:58:13;20.60;99.90
14471;DHT22;7321;50.802;4.336;2023-08-30T16:00:45;20.90;99.90
14471;DHT22;7321;50.802;4.336;2023-08-30T16:03:16;21.60;99.90